Blidosund — SDKG — position and weather

sailwx.info

Track history (hours):
 
Tides and Currents Weather Stations Pressure Air Temp Water Temp Dewpoint Dewpoint Depression Visibility Wind Speed Wind Dir Waves Ship Positions

Blidosund

Last reported at 2015-Aug-28 18:31 UTC. Time now 2015-Aug-28 19:16 UTC.
Position N 59°18' E 017°54'.

Length 35 m; draft 3 m.

Type: Passenger vessel. MMSI: 265522680.

Date/timePositionNaut miles runAvg speedWind from/ knotsBaromVisibWave heightAir tempDewpointWater temp
2015-Aug-28 18:31N 59°18' E 017°54'4 4.0
2015-Aug-28 17:33N 59°19' E 018°01'2 0.4
2015-Aug-28 13:25N 59°20' E 018°05'0 0.0
2015-Aug-28 12:12N 59°20' E 018°05'0 0.0
2015-Aug-28 11:26N 59°20' E 018°05'0 0.0
2015-Aug-28 10:33N 59°20' E 018°05'0 0.0
2015-Aug-28 09:13N 59°20' E 018°05'0 0.0
2015-Aug-28 08:26N 59°20' E 018°05'0 0.0
2015-Aug-28 06:27N 59°20' E 018°05'0 0.0
2015-Aug-28 05:30N 59°20' E 018°05'0 0.0
2015-Aug-28 04:33N 59°20' E 018°05'0 0.0
2015-Aug-28 03:33N 59°20' E 018°05'0 0.0
2015-Aug-28 02:33N 59°20' E 018°05'0 0.0
2015-Aug-28 01:33N 59°20' E 018°05'0 0.0
2015-Aug-28 00:33N 59°20' E 018°05'0 0.0
2015-Aug-27 23:33N 59°20' E 018°05'0 0.0
2015-Aug-27 22:33N 59°20' E 018°05'0 0.0
2015-Aug-27 21:33N 59°20' E 018°05'0 0.0
2015-Aug-27 20:33N 59°20' E 018°05'9 3.7
2015-Aug-27 18:11N 59°23' E 018°20'3 4.8
2015-Aug-27 17:32N 59°21' E 018°15'6 5.7
2015-Aug-27 16:33N 59°20' E 018°05'0 0.0
2015-Aug-27 15:33N 59°20' E 018°05'0 0.0
2015-Aug-27 14:26N 59°20' E 018°05'0 0.0
2015-Aug-27 13:15N 59°20' E 018°05'0 0.0
2015-Aug-27 10:33N 59°20' E 018°05'0 0.0
2015-Aug-27 09:24N 59°20' E 018°05'0 0.0
2015-Aug-27 08:15N 59°20' E 018°05'0 0.0
2015-Aug-27 07:16N 59°20' E 018°05'0 0.0
2015-Aug-27 06:31N 59°20' E 018°05'0 0.0
2015-Aug-27 05:23N 59°20' E 018°05'0 0.0
2015-Aug-27 04:33N 59°20' E 018°05'0 0.0
2015-Aug-27 03:33N 59°20' E 018°05'0 0.0
2015-Aug-27 02:33N 59°20' E 018°05'0 0.0
2015-Aug-27 01:33N 59°20' E 018°05'0 0.0
2015-Aug-27 00:33N 59°20' E 018°05'0 0.0
2015-Aug-26 23:34N 59°20' E 018°05'0 0.0
2015-Aug-26 22:33N 59°20' E 018°05'0 0.0
2015-Aug-26 21:33N 59°20' E 018°05'0 0.0
2015-Aug-26 20:33N 59°20' E 018°05'0 0.0
2015-Aug-26 16:30N 59°20' E 018°05'0 0.0
2015-Aug-26 15:33N 59°20' E 018°05'0 0.0
2015-Aug-26 14:33N 59°20' E 018°05'0 0.0
2015-Aug-26 13:32N 59°20' E 018°05'0 0.0
2015-Aug-26 12:29N 59°20' E 018°05'0 0.0
2015-Aug-26 10:33N 59°20' E 018°05'0 0.0
2015-Aug-26 09:32N 59°20' E 018°05'0 0.0
2015-Aug-26 08:29N 59°20' E 018°05'0 0.0
2015-Aug-26 07:13N 59°20' E 018°05'0 0.0
2015-Aug-26 06:32N 59°20' E 018°05'0 0.0
2015-Aug-26 05:33N 59°20' E 018°05'0 0.0
2015-Aug-26 04:33N 59°20' E 018°05'0 0.0
2015-Aug-26 03:33N 59°20' E 018°05'0 0.0
2015-Aug-26 01:32N 59°20' E 018°05'0 0.0
2015-Aug-26 00:32N 59°20' E 018°05'0 0.0
2015-Aug-25 23:33N 59°20' E 018°05'0 0.0
2015-Aug-25 22:32N 59°20' E 018°05'0 0.0
2015-Aug-25 21:30N 59°20' E 018°05'0 0.0
2015-Aug-25 20:14N 59°20' E 018°05'4 1.4
2015-Aug-25 17:22N 59°20' E 018°12'4 5.1
2015-Aug-25 16:34N 59°20' E 018°05'0 0.0
2015-Aug-25 14:33N 59°20' E 018°05'0 0.0
2015-Aug-25 13:27N 59°20' E 018°05'0 0.0
2015-Aug-25 12:27N 59°20' E 018°05'0 0.0
2015-Aug-25 11:30N 59°20' E 018°05'0 0.0
2015-Aug-25 10:33N 59°20' E 018°05'0 0.0
2015-Aug-25 09:32N 59°20' E 018°05'0 0.0
2015-Aug-25 08:33N 59°20' E 018°05'0 0.0
2015-Aug-25 06:33N 59°20' E 018°05'0 0.0
2015-Aug-25 05:33N 59°20' E 018°05'0 0.0
2015-Aug-25 04:33N 59°20' E 018°05'0 0.0
2015-Aug-25 03:33N 59°20' E 018°05'0 0.0
2015-Aug-25 02:32N 59°20' E 018°05'0 0.0
2015-Aug-25 01:20N 59°20' E 018°05'0 0.0
2015-Aug-25 00:31N 59°20' E 018°05'0 0.0
2015-Aug-24 23:32N 59°20' E 018°05'0 0.0
2015-Aug-24 22:11N 59°20' E 018°05'0 0.0
2015-Aug-24 20:21N 59°20' E 018°05'4 1.4
2015-Aug-24 17:19N 59°20' E 018°13'  
2015-Aug-21 17:34N 59°27' E 017°38'4 4.4
2015-Aug-21 16:33N 59°29' E 017°46'12 6.1
2015-Aug-21 14:33N 59°19' E 018°01'2 2.0
2015-Aug-21 13:33N 59°20' E 018°05'0 0.0
2015-Aug-21 10:33N 59°20' E 018°05'0 0.0
2015-Aug-21 09:33N 59°20' E 018°05'0 0.0
2015-Aug-21 08:31N 59°20' E 018°05'0 0.0
2015-Aug-21 06:32N 59°20' E 018°05'0 0.0
2015-Aug-21 05:33N 59°20' E 018°05'0 0.0
2015-Aug-21 04:33N 59°20' E 018°05'0 0.0
2015-Aug-21 03:33N 59°20' E 018°05'0 0.0
2015-Aug-21 02:34N 59°20' E 018°05'0 0.0
2015-Aug-21 01:33N 59°20' E 018°05'0 0.0
2015-Aug-21 00:33N 59°20' E 018°05'0 0.0
2015-Aug-20 23:34N 59°20' E 018°05'0 0.0
2015-Aug-20 22:34N 59°20' E 018°05'0 0.0
2015-Aug-20 21:34N 59°20' E 018°05'0 0.0
2015-Aug-20 20:34N 59°20' E 018°05'4 1.3
2015-Aug-20 17:20N 59°20' E 018°12'4 5.1
2015-Aug-20 16:33N 59°20' E 018°05'0 0.0
2015-Aug-20 15:33N 59°20' E 018°05'0 0.0
2015-Aug-20 14:34N 59°20' E 018°05'0 0.0
2015-Aug-20 13:33N 59°20' E 018°05'0 0.0
2015-Aug-20 12:33N 59°20' E 018°05'0 0.0
2015-Aug-20 11:29N 59°20' E 018°05'0 0.0
2015-Aug-20 10:33N 59°20' E 018°05'0 0.0
2015-Aug-20 09:28N 59°20' E 018°05'0 0.0
2015-Aug-20 08:31N 59°20' E 018°05'0 0.0
2015-Aug-20 06:30N 59°20' E 018°05'0 0.0
2015-Aug-20 05:34N 59°20' E 018°05'0 0.0
2015-Aug-20 04:34N 59°20' E 018°05'0 0.0
2015-Aug-20 03:33N 59°20' E 018°05'0 0.0
2015-Aug-20 02:33N 59°20' E 018°05'0 0.0
2015-Aug-20 01:33N 59°20' E 018°05'0 0.0
2015-Aug-20 00:30N 59°20' E 018°05'0 0.0
2015-Aug-19 22:29N 59°20' E 018°05'0 0.0
2015-Aug-19 21:19N 59°20' E 018°05'0 0.0
2015-Aug-19 20:28N 59°20' E 018°05'1 1.2
2015-Aug-19 19:14N 59°18' E 018°03'4 6.0
2015-Aug-19 18:34N 59°18' E 017°55'3 3.2
2015-Aug-19 17:33N 59°19' E 018°02'2 1.7
2015-Aug-19 16:33N 59°20' E 018°05'0 0.0
2015-Aug-19 15:33N 59°20' E 018°05'0 0.0
2015-Aug-19 14:19N 59°20' E 018°05'0 0.0
2015-Aug-19 13:26N 59°20' E 018°05'0 0.0
2015-Aug-19 12:22N 59°20' E 018°05'0 0.0
2015-Aug-19 10:32N 59°20' E 018°05'0 0.0
2015-Aug-19 09:26N 59°20' E 018°05'0 0.0
2015-Aug-19 08:30N 59°20' E 018°05'0 0.0
2015-Aug-19 07:16N 59°20' E 018°05'0 0.0
2015-Aug-19 06:33N 59°20' E 018°05'0 0.0
2015-Aug-19 05:34N 59°20' E 018°05'0 0.0
2015-Aug-19 04:22N 59°20' E 018°05'0 0.0
2015-Aug-19 03:30N 59°20' E 018°05'0 0.0
2015-Aug-19 02:31N 59°20' E 018°05'0 0.0
2015-Aug-19 01:32N 59°20' E 018°05'0 0.0
2015-Aug-19 00:34N 59°20' E 018°05'0 0.0
2015-Aug-18 23:33N 59°20' E 018°05'0 0.0
2015-Aug-18 22:33N 59°20' E 018°05'0 0.0
2015-Aug-18 21:32N 59°20' E 018°05'0 0.0
2015-Aug-18 20:33N 59°20' E 018°05'3 2.9
2015-Aug-18 19:32N 59°19' E 018°10'  
Track history (hours):
 
Tides and Currents Weather Stations Pressure Air Temp Water Temp Dewpoint Dewpoint Depression Visibility Wind Speed Wind Dir Waves Ship Positions

Blidosund

Last reported at 2015-Aug-28 18:31 UTC. Time now 2015-Aug-28 19:16 UTC.
Position N 59°18' E 017°54'.

Length 35 m; draft 3 m.

Type: Passenger vessel. MMSI: 265522680.

Date/timePositionNaut miles runAvg speedWind from/ knotsBaromVisibWave heightAir tempDewpointWater temp
2015-Aug-28 18:31N 59°18' E 017°54'4 4.0
2015-Aug-28 17:33N 59°19' E 018°01'2 0.4
2015-Aug-28 13:25N 59°20' E 018°05'0 0.0
2015-Aug-28 12:12N 59°20' E 018°05'0 0.0
2015-Aug-28 11:26N 59°20' E 018°05'0 0.0
2015-Aug-28 10:33N 59°20' E 018°05'0 0.0
2015-Aug-28 09:13N 59°20' E 018°05'0 0.0
2015-Aug-28 08:26N 59°20' E 018°05'0 0.0
2015-Aug-28 06:27N 59°20' E 018°05'0 0.0
2015-Aug-28 05:30N 59°20' E 018°05'0 0.0
2015-Aug-28 04:33N 59°20' E 018°05'0 0.0
2015-Aug-28 03:33N 59°20' E 018°05'0 0.0
2015-Aug-28 02:33N 59°20' E 018°05'0 0.0
2015-Aug-28 01:33N 59°20' E 018°05'0 0.0
2015-Aug-28 00:33N 59°20' E 018°05'0 0.0
2015-Aug-27 23:33N 59°20' E 018°05'0 0.0
2015-Aug-27 22:33N 59°20' E 018°05'0 0.0
2015-Aug-27 21:33N 59°20' E 018°05'0 0.0
2015-Aug-27 20:33N 59°20' E 018°05'9 3.7
2015-Aug-27 18:11N 59°23' E 018°20'3 4.8
2015-Aug-27 17:32N 59°21' E 018°15'6 5.7
2015-Aug-27 16:33N 59°20' E 018°05'0 0.0
2015-Aug-27 15:33N 59°20' E 018°05'0 0.0
2015-Aug-27 14:26N 59°20' E 018°05'0 0.0
2015-Aug-27 13:15N 59°20' E 018°05'0 0.0
2015-Aug-27 10:33N 59°20' E 018°05'0 0.0
2015-Aug-27 09:24N 59°20' E 018°05'0 0.0
2015-Aug-27 08:15N 59°20' E 018°05'0 0.0
2015-Aug-27 07:16N 59°20' E 018°05'0 0.0
2015-Aug-27 06:31N 59°20' E 018°05'0 0.0
2015-Aug-27 05:23N 59°20' E 018°05'0 0.0
2015-Aug-27 04:33N 59°20' E 018°05'0 0.0
2015-Aug-27 03:33N 59°20' E 018°05'0 0.0
2015-Aug-27 02:33N 59°20' E 018°05'0 0.0
2015-Aug-27 01:33N 59°20' E 018°05'0 0.0
2015-Aug-27 00:33N 59°20' E 018°05'0 0.0
2015-Aug-26 23:34N 59°20' E 018°05'0 0.0
2015-Aug-26 22:33N 59°20' E 018°05'0 0.0
2015-Aug-26 21:33N 59°20' E 018°05'0 0.0
2015-Aug-26 20:33N 59°20' E 018°05'0 0.0
2015-Aug-26 16:30N 59°20' E 018°05'0 0.0
2015-Aug-26 15:33N 59°20' E 018°05'0 0.0
2015-Aug-26 14:33N 59°20' E 018°05'0 0.0
2015-Aug-26 13:32N 59°20' E 018°05'0 0.0
2015-Aug-26 12:29N 59°20' E 018°05'0 0.0
2015-Aug-26 10:33N 59°20' E 018°05'0 0.0
2015-Aug-26 09:32N 59°20' E 018°05'0 0.0
2015-Aug-26 08:29N 59°20' E 018°05'0 0.0
2015-Aug-26 07:13N 59°20' E 018°05'0 0.0
2015-Aug-26 06:32N 59°20' E 018°05'0 0.0
2015-Aug-26 05:33N 59°20' E 018°05'0 0.0
2015-Aug-26 04:33N 59°20' E 018°05'0 0.0
2015-Aug-26 03:33N 59°20' E 018°05'0 0.0
2015-Aug-26 01:32N 59°20' E 018°05'0 0.0
2015-Aug-26 00:32N 59°20' E 018°05'0 0.0
2015-Aug-25 23:33N 59°20' E 018°05'0 0.0
2015-Aug-25 22:32N 59°20' E 018°05'0 0.0
2015-Aug-25 21:30N 59°20' E 018°05'0 0.0
2015-Aug-25 20:14N 59°20' E 018°05'4 1.4
2015-Aug-25 17:22N 59°20' E 018°12'4 5.1
2015-Aug-25 16:34N 59°20' E 018°05'0 0.0
2015-Aug-25 14:33N 59°20' E 018°05'0 0.0
2015-Aug-25 13:27N 59°20' E 018°05'0 0.0
2015-Aug-25 12:27N 59°20' E 018°05'0 0.0
2015-Aug-25 11:30N 59°20' E 018°05'0 0.0
2015-Aug-25 10:33N 59°20' E 018°05'0 0.0
2015-Aug-25 09:32N 59°20' E 018°05'0 0.0
2015-Aug-25 08:33N 59°20' E 018°05'0 0.0
2015-Aug-25 06:33N 59°20' E 018°05'0 0.0
2015-Aug-25 05:33N 59°20' E 018°05'0 0.0
2015-Aug-25 04:33N 59°20' E 018°05'0 0.0
2015-Aug-25 03:33N 59°20' E 018°05'0 0.0
2015-Aug-25 02:32N 59°20' E 018°05'0 0.0
2015-Aug-25 01:20N 59°20' E 018°05'0 0.0
2015-Aug-25 00:31N 59°20' E 018°05'0 0.0
2015-Aug-24 23:32N 59°20' E 018°05'0 0.0
2015-Aug-24 22:11N 59°20' E 018°05'0 0.0
2015-Aug-24 20:21N 59°20' E 018°05'4 1.4
2015-Aug-24 17:19N 59°20' E 018°13'  
2015-Aug-21 17:34N 59°27' E 017°38'4 4.4
2015-Aug-21 16:33N 59°29' E 017°46'12 6.1
2015-Aug-21 14:33N 59°19' E 018°01'2 2.0
2015-Aug-21 13:33N 59°20' E 018°05'0 0.0
2015-Aug-21 10:33N 59°20' E 018°05'0 0.0
2015-Aug-21 09:33N 59°20' E 018°05'0 0.0
2015-Aug-21 08:31N 59°20' E 018°05'0 0.0
2015-Aug-21 06:32N 59°20' E 018°05'0 0.0
2015-Aug-21 05:33N 59°20' E 018°05'0 0.0
2015-Aug-21 04:33N 59°20' E 018°05'0 0.0
2015-Aug-21 03:33N 59°20' E 018°05'0 0.0
2015-Aug-21 02:34N 59°20' E 018°05'0 0.0
2015-Aug-21 01:33N 59°20' E 018°05'0 0.0
2015-Aug-21 00:33N 59°20' E 018°05'0 0.0
2015-Aug-20 23:34N 59°20' E 018°05'0 0.0
2015-Aug-20 22:34N 59°20' E 018°05'0 0.0
2015-Aug-20 21:34N 59°20' E 018°05'0 0.0
2015-Aug-20 20:34N 59°20' E 018°05'4 1.3
2015-Aug-20 17:20N 59°20' E 018°12'4 5.1
2015-Aug-20 16:33N 59°20' E 018°05'0 0.0
2015-Aug-20 15:33N 59°20' E 018°05'0 0.0
2015-Aug-20 14:34N 59°20' E 018°05'0 0.0
2015-Aug-20 13:33N 59°20' E 018°05'0 0.0
2015-Aug-20 12:33N 59°20' E 018°05'0 0.0
2015-Aug-20 11:29N 59°20' E 018°05'0 0.0
2015-Aug-20 10:33N 59°20' E 018°05'0 0.0
2015-Aug-20 09:28N 59°20' E 018°05'0 0.0
2015-Aug-20 08:31N 59°20' E 018°05'0 0.0
2015-Aug-20 06:30N 59°20' E 018°05'0 0.0
2015-Aug-20 05:34N 59°20' E 018°05'0 0.0
2015-Aug-20 04:34N 59°20' E 018°05'0 0.0
2015-Aug-20 03:33N 59°20' E 018°05'0 0.0
2015-Aug-20 02:33N 59°20' E 018°05'0 0.0
2015-Aug-20 01:33N 59°20' E 018°05'0 0.0
2015-Aug-20 00:30N 59°20' E 018°05'0 0.0
2015-Aug-19 22:29N 59°20' E 018°05'0 0.0
2015-Aug-19 21:19N 59°20' E 018°05'0 0.0
2015-Aug-19 20:28N 59°20' E 018°05'1 1.2
2015-Aug-19 19:14N 59°18' E 018°03'4 6.0
2015-Aug-19 18:34N 59°18' E 017°55'3 3.2
2015-Aug-19 17:33N 59°19' E 018°02'2 1.7
2015-Aug-19 16:33N 59°20' E 018°05'0 0.0
2015-Aug-19 15:33N 59°20' E 018°05'0 0.0
2015-Aug-19 14:19N 59°20' E 018°05'0 0.0
2015-Aug-19 13:26N 59°20' E 018°05'0 0.0
2015-Aug-19 12:22N 59°20' E 018°05'0 0.0
2015-Aug-19 10:32N 59°20' E 018°05'0 0.0
2015-Aug-19 09:26N 59°20' E 018°05'0 0.0
2015-Aug-19 08:30N 59°20' E 018°05'0 0.0
2015-Aug-19 07:16N 59°20' E 018°05'0 0.0
2015-Aug-19 06:33N 59°20' E 018°05'0 0.0
2015-Aug-19 05:34N 59°20' E 018°05'0 0.0
2015-Aug-19 04:22N 59°20' E 018°05'0 0.0
2015-Aug-19 03:30N 59°20' E 018°05'0 0.0
2015-Aug-19 02:31N 59°20' E 018°05'0 0.0
2015-Aug-19 01:32N 59°20' E 018°05'0 0.0
2015-Aug-19 00:34N 59°20' E 018°05'0 0.0
2015-Aug-18 23:33N 59°20' E 018°05'0 0.0
2015-Aug-18 22:33N 59°20' E 018°05'0 0.0
2015-Aug-18 21:32N 59°20' E 018°05'0 0.0
2015-Aug-18 20:33N 59°20' E 018°05'3 2.9
2015-Aug-18 19:32N 59°19' E 018°10'  

Dump ship's entire track history